createdAt,value
2018-11-07T00:00:58.938Z,9.7
2018-11-07T00:01:58.916Z,9.1
2018-11-07T00:02:59.091Z,8.7
2018-11-07T00:03:58.943Z,8.3
2018-11-07T00:04:58.934Z,7.9
2018-11-07T00:05:58.918Z,7.5
2018-11-07T00:06:58.914Z,7.3
2018-11-07T00:07:58.999Z,6.9
2018-11-07T00:08:58.951Z,6.5
2018-11-07T00:09:58.984Z,6.5
2018-11-07T00:10:58.938Z,6.4
2018-11-07T00:11:59.005Z,6.1
2018-11-07T00:12:58.951Z,6
2018-11-07T00:13:58.928Z,6.1
2018-11-07T00:14:58.975Z,5.9
2018-11-07T00:15:58.921Z,5.7
2018-11-07T00:16:58.920Z,5.2
2018-11-07T00:17:58.953Z,5.1
2018-11-07T00:18:58.926Z,5.4
2018-11-07T00:19:58.980Z,5.2
2018-11-07T00:20:58.922Z,5.2
2018-11-07T00:21:58.928Z,5
2018-11-07T00:22:58.975Z,5
2018-11-07T00:23:58.930Z,4.8
2018-11-07T00:24:58.901Z,4.6
2018-11-07T00:25:58.904Z,4.2
2018-11-07T00:26:58.972Z,3.8
2018-11-07T00:27:59.411Z,3.5
2018-11-07T00:28:58.904Z,3.3
2018-11-07T00:29:59.021Z,3.2
2018-11-07T00:31:02.024Z,3
2018-11-07T00:31:58.920Z,2.8
2018-11-07T00:32:58.926Z,2.5
2018-11-07T00:33:58.905Z,2.3
2018-11-07T00:34:59.041Z,2.2
2018-11-07T00:35:58.924Z,2.2
2018-11-07T00:36:58.905Z,2.2
2018-11-07T00:37:58.987Z,2.1
2018-11-07T00:38:58.958Z,2.2
2018-11-07T00:39:58.986Z,2.4
2018-11-07T00:40:58.918Z,2.2
2018-11-07T00:41:58.916Z,2.1
2018-11-07T00:42:58.978Z,2
2018-11-07T00:43:58.970Z,2
2018-11-07T00:44:58.907Z,1.9
2018-11-07T00:45:58.993Z,1.8
2018-11-07T00:46:58.905Z,1.8
2018-11-07T00:47:58.953Z,1.7
2018-11-07T00:48:58.927Z,1.5
2018-11-07T00:49:58.895Z,1.4
2018-11-07T00:50:58.987Z,1.4
2018-11-07T00:51:58.913Z,1.4
2018-11-07T00:52:58.913Z,1.3
2018-11-07T00:53:58.918Z,1.3
2018-11-07T00:54:58.965Z,1.2
2018-11-07T00:55:58.893Z,1.2
2018-11-07T00:56:58.915Z,1.1
2018-11-07T00:57:58.999Z,1.1
2018-11-07T00:58:58.925Z,1
2018-11-07T00:59:58.905Z,0.9
2018-11-07T01:00:58.922Z,0.9
2018-11-07T01:01:58.936Z,0.8
2018-11-07T01:02:58.966Z,0.7
2018-11-07T01:03:58.911Z,0.7
2018-11-07T01:04:58.992Z,0.9
2018-11-07T01:05:58.900Z,1.1
2018-11-07T01:06:58.892Z,1.4
2018-11-07T01:07:58.891Z,1.8
2018-11-07T01:08:59.004Z,1.9
2018-11-07T01:09:58.939Z,2
2018-11-07T01:10:58.897Z,1.9
2018-11-07T01:11:58.904Z,2
2018-11-07T01:12:58.965Z,1.8
2018-11-07T01:13:58.886Z,1.7
2018-11-07T01:14:58.947Z,1.5
2018-11-07T01:15:58.893Z,1.4
2018-11-07T01:16:58.988Z,1.4
2018-11-07T01:17:58.894Z,1.2
2018-11-07T01:18:58.897Z,1.2
2018-11-07T01:19:58.980Z,1.3
2018-11-07T01:20:58.915Z,1.3
2018-11-07T01:21:58.977Z,1.4
2018-11-07T01:22:58.914Z,1.9
2018-11-07T01:23:58.887Z,1.9
2018-11-07T01:24:58.921Z,1.9
2018-11-07T01:25:58.960Z,1.8
2018-11-07T01:26:58.916Z,1.7
2018-11-07T01:27:58.963Z,1.7
2018-11-07T01:28:58.918Z,1.6
2018-11-07T01:29:58.896Z,1.8
2018-11-07T01:30:58.922Z,1.9
2018-11-07T01:31:58.927Z,2.1
2018-11-07T01:32:58.952Z,2.4
2018-11-07T01:33:58.912Z,2.7
2018-11-07T01:34:58.889Z,2.8
2018-11-07T01:35:58.905Z,2.8
2018-11-07T01:36:58.901Z,2.6
2018-11-07T01:37:58.989Z,2.6
2018-11-07T01:38:58.977Z,2.4
2018-11-07T01:39:58.898Z,2.2
2018-11-07T01:40:58.922Z,2
2018-11-07T01:41:59.020Z,1.8
2018-11-07T01:42:58.883Z,1.8
2018-11-07T01:43:58.968Z,2
2018-11-07T01:44:58.946Z,2.1
2018-11-07T01:45:58.906Z,2.3
2018-11-07T01:46:58.914Z,2.5
2018-11-07T01:47:58.935Z,2.5
2018-11-07T01:48:58.911Z,2.5
2018-11-07T01:49:58.953Z,2.5
2018-11-07T01:50:58.908Z,2.8
2018-11-07T01:51:58.892Z,3
2018-11-07T01:52:58.940Z,3.2
2018-11-07T01:53:58.877Z,3.3
2018-11-07T01:54:58.949Z,3.5
2018-11-07T01:55:58.885Z,4.1
2018-11-07T01:56:58.882Z,4.7
2018-11-07T01:57:58.977Z,5.2
2018-11-07T01:58:58.977Z,5.4
2018-11-07T01:59:58.890Z,5.1
2018-11-07T02:00:58.950Z,5.2
2018-11-07T02:01:58.881Z,5.4
2018-11-07T02:02:58.909Z,5.2
2018-11-07T02:03:58.942Z,5.4
2018-11-07T02:04:58.979Z,5.4
2018-11-07T02:05:58.897Z,4.9
2018-11-07T02:06:58.902Z,4.4
2018-11-07T02:07:58.896Z,4.4
2018-11-07T02:08:58.903Z,4.5
2018-11-07T02:09:58.959Z,4.4
2018-11-07T02:10:58.886Z,5
2018-11-07T02:11:58.877Z,5.5
2018-11-07T02:12:58.877Z,5.8
2018-11-07T02:13:58.938Z,5.9
2018-11-07T02:14:58.874Z,5.8
2018-11-07T02:15:58.892Z,5.7
2018-11-07T02:17:01.508Z,5.3
2018-11-07T02:17:58.872Z,5.3
2018-11-07T02:18:58.893Z,4.9
2018-11-07T02:19:58.884Z,4.9
2018-11-07T02:20:58.938Z,5
2018-11-07T02:21:58.877Z,5
2018-11-07T02:22:58.880Z,5.1
2018-11-07T02:23:58.909Z,5.5
2018-11-07T02:24:58.859Z,6.4
2018-11-07T02:25:58.926Z,7.2
2018-11-07T02:26:58.894Z,8
2018-11-07T02:27:58.874Z,9
2018-11-07T02:28:58.879Z,10.1
2018-11-07T02:29:58.878Z,10.8
2018-11-07T02:30:58.957Z,11.3
2018-11-07T02:31:58.958Z,11.9
2018-11-07T02:32:58.924Z,12.4
2018-11-07T02:33:58.871Z,12.9
2018-11-07T02:34:58.884Z,13.5
2018-11-07T02:35:58.929Z,13.9
2018-11-07T02:36:58.949Z,13.8
2018-11-07T02:37:58.877Z,13.5
2018-11-07T02:38:58.894Z,13.6
2018-11-07T02:39:58.869Z,14.1
2018-11-07T02:40:58.942Z,14.3
2018-11-07T02:41:58.942Z,14.2
2018-11-07T02:42:58.859Z,13.6
2018-11-07T02:43:58.943Z,12.9
2018-11-07T02:44:58.890Z,12.4
2018-11-07T02:45:58.856Z,11.9
2018-11-07T02:46:58.889Z,11.2
2018-11-07T02:47:58.858Z,10.5
2018-11-07T02:48:58.925Z,9.9
2018-11-07T02:49:58.862Z,9.4
2018-11-07T02:50:58.877Z,8.9
2018-11-07T02:51:58.931Z,8.6
2018-11-07T02:52:58.941Z,8.7
2018-11-07T02:53:58.860Z,8.6
2018-11-07T02:54:58.860Z,8.6
2018-11-07T02:55:58.933Z,8.7
2018-11-07T02:56:58.941Z,8.8
2018-11-07T02:57:58.857Z,8.9
2018-11-07T02:58:58.869Z,8.8
2018-11-07T02:59:58.868Z,8.6
2018-11-07T03:00:58.893Z,8.4
2018-11-07T03:01:58.926Z,8.1
2018-11-07T03:02:58.869Z,7.7
2018-11-07T03:03:58.921Z,7.5
2018-11-07T03:04:58.896Z,7.4
2018-11-07T03:05:58.873Z,7.3
2018-11-07T03:06:58.865Z,7.2
2018-11-07T03:07:58.868Z,6.9
2018-11-07T03:08:58.943Z,7.1
2018-11-07T03:09:58.925Z,7.4
2018-11-07T03:10:58.862Z,7.3
2018-11-07T03:11:58.857Z,7
2018-11-07T03:12:58.843Z,6.8
2018-11-07T03:13:58.919Z,6.6
2018-11-07T03:14:58.884Z,6.3
2018-11-07T03:15:58.854Z,6
2018-11-07T03:16:58.852Z,5.7
2018-11-07T03:17:58.854Z,5.5
2018-11-07T03:18:58.920Z,5.4
2018-11-07T03:19:58.851Z,5.2
2018-11-07T03:20:58.933Z,5.1
2018-11-07T03:21:58.856Z,5
2018-11-07T03:22:58.840Z,4.8
2018-11-07T03:23:58.868Z,4.5
2018-11-07T03:24:58.965Z,4.3
2018-11-07T03:25:58.854Z,4
2018-11-07T03:26:58.845Z,3.8
2018-11-07T03:27:58.856Z,3.6
2018-11-07T03:28:58.857Z,3.4
2018-11-07T03:29:58.914Z,3.2
2018-11-07T03:30:58.933Z,3.3
2018-11-07T03:31:58.846Z,3.2
2018-11-07T03:32:58.863Z,3.1
2018-11-07T03:33:58.911Z,3
2018-11-07T03:34:58.878Z,2.9
2018-11-07T03:35:58.849Z,3
2018-11-07T03:36:58.908Z,3
2018-11-07T03:37:58.849Z,3
2018-11-07T03:39:00.206Z,3
2018-11-07T03:39:58.957Z,3
2018-11-07T03:40:58.849Z,2.9
2018-11-07T03:41:58.913Z,2.8
2018-11-07T03:42:58.848Z,2.7
2018-11-07T03:43:58.920Z,2.7
2018-11-07T03:44:58.838Z,2.5
2018-11-07T03:45:58.865Z,2.4
2018-11-07T03:46:58.841Z,2.4
2018-11-07T03:47:58.858Z,2.4
2018-11-07T03:48:58.927Z,2.4
2018-11-07T03:49:58.863Z,2.5
2018-11-07T03:50:58.852Z,2.3
2018-11-07T03:51:58.893Z,2.2
2018-11-07T03:52:58.917Z,2.1
2018-11-07T03:53:58.863Z,1.9
2018-11-07T03:54:58.847Z,1.8
2018-11-07T03:55:58.847Z,1.7
2018-11-07T03:56:58.835Z,1.8
2018-11-07T03:57:58.917Z,1.9
2018-11-07T03:58:58.859Z,1.9
2018-11-07T03:59:58.852Z,2.1
2018-11-07T04:00:58.853Z,2.3
2018-11-07T04:01:58.917Z,2.4
2018-11-07T04:02:58.847Z,2.6
2018-11-07T04:03:58.841Z,2.7
2018-11-07T04:04:58.833Z,2.7
2018-11-07T04:05:58.835Z,2.6
2018-11-07T04:06:58.830Z,2.8
2018-11-07T04:07:58.832Z,3
2018-11-07T04:08:58.905Z,3
2018-11-07T04:09:58.833Z,2.9
2018-11-07T04:10:58.853Z,2.7
2018-11-07T04:11:58.850Z,2.7
2018-11-07T04:12:58.831Z,2.7
2018-11-07T04:13:58.913Z,2.8
2018-11-07T04:14:58.830Z,3.2
2018-11-07T04:15:58.851Z,3.6
2018-11-07T04:16:58.836Z,3.8
2018-11-07T04:17:58.898Z,4.1
2018-11-07T04:18:58.938Z,4.2
2018-11-07T04:19:58.833Z,4.2
2018-11-07T04:20:58.904Z,4.2
2018-11-07T04:21:58.847Z,4.6
2018-11-07T04:22:58.821Z,4.6
2018-11-07T04:23:58.856Z,4.6
2018-11-07T04:24:58.831Z,4.5
2018-11-07T04:25:58.892Z,4.3
2018-11-07T04:26:58.842Z,4.3
2018-11-07T04:27:59.124Z,4.2
2018-11-07T04:28:58.832Z,3.8
2018-11-07T04:29:58.852Z,3.5
2018-11-07T04:30:58.917Z,3.2
2018-11-07T04:31:58.863Z,3.2
2018-11-07T04:32:58.829Z,3.1
2018-11-07T04:33:58.823Z,3
2018-11-07T04:34:58.882Z,2.9
2018-11-07T04:35:58.838Z,2.8
2018-11-07T04:36:58.903Z,2.6
2018-11-07T04:37:58.853Z,2.6
2018-11-07T04:38:58.844Z,2.7
2018-11-07T04:39:58.831Z,3
2018-11-07T04:40:58.915Z,3.3
2018-11-07T04:41:58.815Z,3.8
2018-11-07T04:42:58.841Z,4.1
2018-11-07T04:43:58.815Z,4
2018-11-07T04:44:58.825Z,3.7
2018-11-07T04:45:58.876Z,3.4
2018-11-07T04:46:58.840Z,3.2
2018-11-07T04:47:58.819Z,3.4
2018-11-07T04:48:58.876Z,3.2
2018-11-07T04:49:58.820Z,2.9
2018-11-07T04:50:58.840Z,2.7
2018-11-07T04:51:58.817Z,2.7
2018-11-07T04:52:58.838Z,3.1
2018-11-07T04:53:58.890Z,3.5
2018-11-07T04:54:58.828Z,3.7
2018-11-07T04:55:58.868Z,4.4
2018-11-07T04:56:58.810Z,4.9
2018-11-07T04:57:58.832Z,5.3
2018-11-07T04:58:58.855Z,5.8
2018-11-07T04:59:58.872Z,6.3
2018-11-07T05:00:58.830Z,6.5
2018-11-07T05:01:58.830Z,6.7
2018-11-07T05:02:58.818Z,6.9
2018-11-07T05:03:58.886Z,7
2018-11-07T05:04:58.806Z,7.2
2018-11-07T05:05:58.877Z,7.2
2018-11-07T05:06:58.802Z,7.1
2018-11-07T05:07:58.816Z,7
2018-11-07T05:08:58.834Z,6.7
2018-11-07T05:09:58.821Z,6.8
2018-11-07T05:10:58.871Z,6.7
2018-11-07T05:11:58.813Z,6.7
2018-11-07T05:12:58.801Z,6.5
2018-11-07T05:13:58.896Z,6.5
2018-11-07T05:14:58.835Z,6.7
2018-11-07T05:15:58.809Z,7.1
2018-11-07T05:16:58.818Z,7.1
2018-11-07T05:17:58.848Z,6.8
2018-11-07T05:18:58.860Z,6.3
2018-11-07T05:19:58.794Z,5.8
2018-11-07T05:20:58.804Z,5.5
2018-11-07T05:21:58.820Z,5.3
2018-11-07T05:22:58.809Z,5.2
2018-11-07T05:23:58.878Z,4.8
2018-11-07T05:24:58.810Z,4.4
2018-11-07T05:25:58.826Z,4
2018-11-07T05:26:58.807Z,3.9
2018-11-07T05:28:02.433Z,3.9
2018-11-07T05:28:58.847Z,4
2018-11-07T05:29:58.830Z,4.3
2018-11-07T05:30:58.818Z,4.4
2018-11-07T05:31:58.916Z,4.2
2018-11-07T05:32:58.854Z,4
2018-11-07T05:33:58.889Z,3.8
2018-11-07T05:34:58.814Z,3.6
2018-11-07T05:35:58.804Z,3.4
2018-11-07T05:36:58.818Z,3.4
2018-11-07T05:37:58.861Z,3.5
2018-11-07T05:39:00.397Z,3.7
2018-11-07T05:39:58.791Z,3.7
2018-11-07T05:40:59.818Z,3.9
2018-11-07T05:41:58.801Z,4.3
2018-11-07T05:42:58.871Z,4.6
2018-11-07T05:43:58.819Z,4.9
2018-11-07T05:44:58.794Z,4.9
2018-11-07T05:45:58.817Z,4.9
2018-11-07T05:46:58.876Z,5.1
2018-11-07T05:47:58.795Z,5.1
2018-11-07T05:48:58.870Z,4.9
2018-11-07T05:49:58.802Z,5
2018-11-07T05:50:58.870Z,5.1
2018-11-07T05:51:58.810Z,5.4
2018-11-07T05:52:58.845Z,5.8
2018-11-07T05:53:58.815Z,6.1
2018-11-07T05:54:58.801Z,6
2018-11-07T05:55:58.804Z,5.9
2018-11-07T05:56:58.897Z,5.8
2018-11-07T05:57:58.807Z,5.9
2018-11-07T05:58:58.796Z,5.7
2018-11-07T05:59:58.910Z,5.5
2018-11-07T06:00:58.793Z,5.2
2018-11-07T06:01:58.853Z,5
2018-11-07T06:02:58.777Z,4.7
2018-11-07T06:03:58.839Z,4.5
2018-11-07T06:04:58.783Z,4.1
2018-11-07T06:05:58.789Z,3.7
2018-11-07T06:06:58.876Z,3.3
2018-11-07T06:07:58.841Z,3
2018-11-07T06:08:58.799Z,3.1
2018-11-07T06:09:58.798Z,3.2
2018-11-07T06:10:58.855Z,3.3
2018-11-07T06:11:58.814Z,3.4
2018-11-07T06:12:58.855Z,3.3
2018-11-07T06:13:58.810Z,3.8
2018-11-07T06:14:58.801Z,4.3
2018-11-07T06:15:58.878Z,4.6
2018-11-07T06:16:58.790Z,4.8
2018-11-07T06:17:58.787Z,4.6
2018-11-07T06:18:58.835Z,4.5
2018-11-07T06:19:58.842Z,4.4
2018-11-07T06:20:58.794Z,4.6
2018-11-07T06:21:58.899Z,4.2
2018-11-07T06:22:58.872Z,3.8
2018-11-07T06:23:58.798Z,3.5
2018-11-07T06:24:58.884Z,3.1
2018-11-07T06:25:58.786Z,2.8
2018-11-07T06:26:58.806Z,2.6
2018-11-07T06:27:59.335Z,2.5
2018-11-07T06:28:58.849Z,2.3
2018-11-07T06:29:58.776Z,2.3
2018-11-07T06:30:58.804Z,2.1
2018-11-07T06:31:58.817Z,2
2018-11-07T06:32:58.858Z,1.9
2018-11-07T06:33:58.837Z,1.7
2018-11-07T06:34:58.783Z,1.7
2018-11-07T06:35:58.781Z,1.6
2018-11-07T06:36:58.820Z,1.5
2018-11-07T06:37:58.868Z,1.7
2018-11-07T06:38:58.781Z,2.1
2018-11-07T06:39:58.762Z,2
2018-11-07T06:40:58.787Z,2.2
2018-11-07T06:41:58.776Z,2.8
2018-11-07T06:42:58.844Z,3
2018-11-07T06:43:58.852Z,2.8
2018-11-07T06:44:58.841Z,3
2018-11-07T06:45:58.770Z,3.1
2018-11-07T06:46:58.811Z,3.3
2018-11-07T06:47:58.840Z,3.5
2018-11-07T06:48:58.787Z,3.9
2018-11-07T06:49:58.797Z,4.5
2018-11-07T06:50:58.809Z,4.7
2018-11-07T06:51:58.787Z,4.8
2018-11-07T06:52:58.842Z,4.7
2018-11-07T06:53:58.793Z,5.1
2018-11-07T06:55:01.335Z,5.8
2018-11-07T06:55:58.840Z,6.5
2018-11-07T06:56:58.780Z,7.3
2018-11-07T06:58:02.762Z,8.1
2018-11-07T06:58:58.769Z,8.7
2018-11-07T06:59:58.778Z,9.2
2018-11-07T07:00:58.843Z,9.7
2018-11-07T07:01:58.863Z,10.1
2018-11-07T07:02:58.770Z,10.4
2018-11-07T07:03:58.785Z,10.8
2018-11-07T07:04:58.827Z,11.1
2018-11-07T07:05:58.790Z,11.6
2018-11-07T07:06:58.775Z,12
2018-11-07T07:07:58.768Z,12.1
2018-11-07T07:08:58.771Z,12.4
2018-11-07T07:09:58.850Z,12.6
2018-11-07T07:10:58.771Z,13
2018-11-07T07:11:58.839Z,13.4
2018-11-07T07:12:58.789Z,13.9
2018-11-07T07:13:58.766Z,14.3
2018-11-07T07:14:58.776Z,14.6
2018-11-07T07:15:58.820Z,15
2018-11-07T07:16:58.868Z,15.4
2018-11-07T07:17:58.860Z,15.8
2018-11-07T07:18:58.755Z,16
2018-11-07T07:19:58.794Z,15.9
2018-11-07T07:20:58.765Z,15.4
2018-11-07T07:21:58.777Z,14.7
2018-11-07T07:22:58.833Z,14.1
2018-11-07T07:23:58.782Z,13.4
2018-11-07T07:24:58.769Z,12.8
2018-11-07T07:25:58.762Z,12.2
2018-11-07T07:26:58.773Z,11.8
2018-11-07T07:27:58.844Z,11.5
2018-11-07T07:28:58.761Z,11.3
2018-11-07T07:29:58.783Z,11
2018-11-07T07:30:58.825Z,11
2018-11-07T07:31:58.846Z,10.5
2018-11-07T07:32:58.822Z,10.2
2018-11-07T07:33:58.869Z,9.8
2018-11-07T07:34:58.795Z,9.6
2018-11-07T07:35:58.762Z,9.3
2018-11-07T07:36:58.782Z,9.3
2018-11-07T07:37:58.775Z,9.2
2018-11-07T07:38:58.816Z,9.2
2018-11-07T07:39:58.780Z,9.4
2018-11-07T07:40:58.843Z,10
2018-11-07T07:41:58.752Z,10.5
2018-11-07T07:42:58.758Z,10.8
2018-11-07T07:43:58.785Z,10.9
2018-11-07T07:44:58.752Z,11
2018-11-07T07:45:58.842Z,10.9
2018-11-07T07:46:58.750Z,10.8
2018-11-07T07:47:58.766Z,10.7
2018-11-07T07:48:58.762Z,10.5
2018-11-07T07:49:58.840Z,10.3
2018-11-07T07:50:58.815Z,10.1
2018-11-07T07:51:58.771Z,9.8
2018-11-07T07:52:58.787Z,9.5
2018-11-07T07:53:58.759Z,9.2
2018-11-07T07:54:58.847Z,9
2018-11-07T07:55:58.768Z,9.2
2018-11-07T07:56:58.818Z,9.1
2018-11-07T07:57:58.775Z,9
2018-11-07T07:58:58.777Z,9
2018-11-07T07:59:58.789Z,9.1
2018-11-07T08:00:58.780Z,9
2018-11-07T08:01:58.834Z,8.9
2018-11-07T08:02:58.762Z,8.7
2018-11-07T08:03:58.776Z,8.7
2018-11-07T08:04:58.818Z,8.7
2018-11-07T08:05:59.425Z,8.3
2018-11-07T08:06:58.955Z,7.7
2018-11-07T08:07:58.768Z,7.3
2018-11-07T08:08:58.841Z,7.1
2018-11-07T08:09:58.821Z,6.7
2018-11-07T08:10:58.818Z,6.5
2018-11-07T08:11:58.820Z,6.1
2018-11-07T08:12:58.762Z,5.7
2018-11-07T08:13:58.836Z,5.3
2018-11-07T08:14:58.763Z,5
2018-11-07T08:15:58.781Z,4.9
2018-11-07T08:16:59.367Z,4.8
2018-11-07T08:17:58.768Z,4.8
2018-11-07T08:18:58.759Z,4.8
2018-11-07T08:19:58.776Z,4.9
2018-11-07T08:20:58.827Z,4.8
2018-11-07T08:21:58.749Z,4.4
2018-11-07T08:22:58.748Z,4
2018-11-07T08:23:58.760Z,3.6
2018-11-07T08:24:58.837Z,3.3
2018-11-07T08:25:58.760Z,2.9
2018-11-07T08:26:58.774Z,2.7
2018-11-07T08:27:58.840Z,2.4
2018-11-07T08:28:58.802Z,2.2
2018-11-07T08:29:58.848Z,2
2018-11-07T08:30:58.904Z,1.8
2018-11-07T08:31:58.797Z,1.6
2018-11-07T08:32:58.758Z,2
2018-11-07T08:33:58.760Z,2
2018-11-07T08:34:58.764Z,1.9
2018-11-07T08:35:58.831Z,1.7
2018-11-07T08:36:58.758Z,1.6
2018-11-07T08:37:58.775Z,1.4
2018-11-07T08:38:58.748Z,1.3
2018-11-07T08:39:58.748Z,1.2
2018-11-07T08:40:58.830Z,1.1
2018-11-07T08:41:58.777Z,1.6
2018-11-07T08:42:58.749Z,2.3
2018-11-07T08:43:58.754Z,2.9
2018-11-07T08:44:58.754Z,3.4
2018-11-07T08:45:58.815Z,3.8
2018-11-07T08:46:58.749Z,4.4
2018-11-07T08:47:58.845Z,4.8
2018-11-07T08:48:58.783Z,5
2018-11-07T08:49:58.756Z,4.8
2018-11-07T08:50:58.756Z,4.4
2018-11-07T08:51:58.785Z,3.9
2018-11-07T08:52:58.838Z,3.6
2018-11-07T08:53:58.768Z,3.2
2018-11-07T08:55:01.476Z,2.9
2018-11-07T08:55:58.756Z,2.7
2018-11-07T08:56:58.775Z,2.4
2018-11-07T08:57:58.808Z,2.2
2018-11-07T08:58:58.779Z,2.1
2018-11-07T08:59:58.774Z,2.3
2018-11-07T09:00:58.760Z,2.6
2018-11-07T09:01:58.795Z,2.8
2018-11-07T09:02:58.821Z,2.8
2018-11-07T09:03:58.773Z,2.9
2018-11-07T09:04:58.763Z,2.8
2018-11-07T09:05:58.753Z,2.6
2018-11-07T09:06:58.773Z,2.3
2018-11-07T09:07:58.838Z,2.1
2018-11-07T09:08:58.769Z,2
2018-11-07T09:09:58.756Z,1.8
2018-11-07T09:10:58.831Z,1.6
2018-11-07T09:11:58.782Z,1.5
2018-11-07T09:12:58.819Z,1.3
2018-11-07T09:13:58.757Z,1.2
2018-11-07T09:14:58.758Z,1.1
2018-11-07T09:15:58.843Z,1.2
2018-11-07T09:16:58.778Z,1.5
2018-11-07T09:17:58.758Z,1.7
2018-11-07T09:18:58.757Z,1.5
2018-11-07T09:19:58.768Z,1.6
2018-11-07T09:20:58.836Z,1.7
2018-11-07T09:21:58.767Z,1.6
2018-11-07T09:22:58.750Z,1.8
2018-11-07T09:23:58.823Z,2
2018-11-07T09:24:58.764Z,2.1
2018-11-07T09:25:58.764Z,2.3
2018-11-07T09:26:58.831Z,2.5
2018-11-07T09:27:58.781Z,2.8
2018-11-07T09:28:58.866Z,2.7
2018-11-07T09:29:58.778Z,2.8
2018-11-07T09:30:58.815Z,2.8
2018-11-07T09:31:58.757Z,2.5
2018-11-07T09:33:00.717Z,2.3
2018-11-07T09:33:58.754Z,2.1
2018-11-07T09:34:58.753Z,1.9
2018-11-07T09:35:58.812Z,2
2018-11-07T09:36:58.772Z,2.5
2018-11-07T09:37:58.756Z,3.2
2018-11-07T09:38:58.752Z,4.5
2018-11-07T09:39:58.826Z,5.5
2018-11-07T09:40:58.807Z,6.2
2018-11-07T09:41:58.818Z,7
2018-11-07T09:42:58.750Z,7.6
2018-11-07T09:43:59.590Z,8.4
2018-11-07T09:44:58.873Z,9.3
2018-11-07T09:45:58.776Z,10.1
2018-11-07T09:46:58.769Z,10.9
2018-11-07T09:47:58.793Z,11.1
2018-11-07T09:48:58.764Z,11.8
2018-11-07T09:49:58.834Z,12.6
2018-11-07T09:50:58.758Z,13
2018-11-07T09:51:58.746Z,13
2018-11-07T09:52:58.821Z,13.2
2018-11-07T09:53:58.869Z,13.3
2018-11-07T09:54:58.836Z,13.6
2018-11-07T09:55:58.783Z,14
2018-11-07T09:56:58.772Z,13.8
2018-11-07T09:57:58.820Z,13.6
2018-11-07T09:58:58.754Z,13.4
2018-11-07T09:59:58.768Z,13.5
2018-11-07T10:00:58.787Z,14.1
2018-11-07T10:01:58.777Z,14.4
2018-11-07T10:02:58.826Z,14.7
2018-11-07T10:03:58.767Z,14.8
2018-11-07T10:04:58.750Z,14.8
2018-11-07T10:05:58.765Z,14.9
2018-11-07T10:06:58.756Z,15.3
2018-11-07T10:07:58.838Z,14.9
2018-11-07T10:08:58.795Z,14.8
2018-11-07T10:09:58.784Z,14.6
2018-11-07T10:10:58.756Z,14.7
2018-11-07T10:11:58.755Z,14.6
2018-11-07T10:12:58.849Z,13.8
2018-11-07T10:13:58.768Z,13
2018-11-07T10:14:58.767Z,12.8
2018-11-07T10:15:58.751Z,13.1
2018-11-07T10:16:58.771Z,13.3
2018-11-07T10:17:58.855Z,13.5
2018-11-07T10:18:58.791Z,13.4
2018-11-07T10:19:58.783Z,13.4
2018-11-07T10:20:58.757Z,13.6
2018-11-07T10:21:58.786Z,13.4
2018-11-07T10:22:58.820Z,13.2
2018-11-07T10:23:58.746Z,13.1
2018-11-07T10:24:58.789Z,13.5
2018-11-07T10:25:58.754Z,13.5
2018-11-07T10:26:58.870Z,13.1
2018-11-07T10:27:59.191Z,13.1
2018-11-07T10:28:59.009Z,13.7
2018-11-07T10:29:59.046Z,13.9
2018-11-07T10:30:58.812Z,14.2
2018-11-07T10:31:58.861Z,13.9
2018-11-07T10:32:59.206Z,14.9
2018-11-07T10:33:58.779Z,15.4
2018-11-07T10:34:58.817Z,16.1
2018-11-07T10:35:58.767Z,16
2018-11-07T10:36:58.817Z,15.9
2018-11-07T10:37:58.876Z,16.3
2018-11-07T10:38:58.867Z,15.7
2018-11-07T10:39:58.838Z,16
2018-11-07T10:40:58.853Z,15.7
2018-11-07T10:41:58.777Z,16.3
2018-11-07T10:42:58.754Z,16.3
2018-11-07T10:44:00.217Z,16.3
2018-11-07T10:44:58.756Z,15.6
2018-11-07T10:45:58.876Z,15
2018-11-07T10:46:58.763Z,14.1
2018-11-07T10:47:58.773Z,13.2
2018-11-07T10:48:58.787Z,12.3
2018-11-07T10:49:58.766Z,12.3
2018-11-07T10:50:58.825Z,12.3
2018-11-07T10:51:58.807Z,12
2018-11-07T10:52:58.771Z,12.5
2018-11-07T10:53:58.778Z,12.7
2018-11-07T10:54:58.843Z,12.7
2018-11-07T10:55:58.759Z,12.8
2018-11-07T10:56:58.797Z,12.6
2018-11-07T10:57:58.765Z,13.3
2018-11-07T10:58:58.761Z,13.8
2018-11-07T10:59:58.854Z,14
2018-11-07T11:00:58.747Z,14.7
2018-11-07T11:01:58.760Z,14.6
2018-11-07T11:02:58.781Z,14.5
2018-11-07T11:03:58.762Z,14.5
2018-11-07T11:04:58.809Z,13.9
2018-11-07T11:05:59.999Z,13.2
2018-11-07T11:06:58.788Z,13.6
2018-11-07T11:07:58.766Z,13.6
2018-11-07T11:08:58.796Z,13.5
2018-11-07T11:09:58.826Z,13.5
2018-11-07T11:10:58.813Z,12.6
2018-11-07T11:11:58.803Z,11.9
2018-11-07T11:12:58.819Z,11
2018-11-07T11:13:58.775Z,10.2
2018-11-07T11:14:58.794Z,10
2018-11-07T11:15:58.772Z,9.3
2018-11-07T11:16:58.783Z,8.8
2018-11-07T11:17:58.860Z,8.8
2018-11-07T11:18:58.756Z,8.8
2018-11-07T11:19:58.756Z,8.7
2018-11-07T11:20:58.766Z,9.1
2018-11-07T11:21:59.046Z,9.1
2018-11-07T11:22:58.764Z,8.7
2018-11-07T11:23:58.764Z,9.1
2018-11-07T11:24:58.791Z,8.8
2018-11-07T11:25:58.923Z,8.2
2018-11-07T11:26:58.780Z,7.6
2018-11-07T11:27:58.772Z,7.7
2018-11-07T11:28:58.777Z,8
2018-11-07T11:29:58.800Z,8
2018-11-07T11:30:58.829Z,7.9
2018-11-07T11:31:58.781Z,7.5
2018-11-07T11:32:58.763Z,7.5
2018-11-07T11:33:58.926Z,8.6
2018-11-07T11:34:58.870Z,8.9
2018-11-07T11:35:58.855Z,8.5
2018-11-07T11:36:58.798Z,8.8
2018-11-07T11:37:58.800Z,8.9
2018-11-07T11:38:58.868Z,9
2018-11-07T11:39:58.780Z,9
2018-11-07T11:40:58.827Z,8.5
2018-11-07T11:41:58.766Z,8
2018-11-07T11:42:58.781Z,7.8
2018-11-07T11:43:58.840Z,7.5
2018-11-07T11:44:58.780Z,7.1
2018-11-07T11:45:58.769Z,6.8
2018-11-07T11:46:58.833Z,7.1
2018-11-07T11:47:58.841Z,6.9
2018-11-07T11:48:58.825Z,7.1
2018-11-07T11:49:58.795Z,7.3
2018-11-07T11:50:58.778Z,7.4
2018-11-07T11:51:58.793Z,8.1
2018-11-07T11:52:58.907Z,8.7
2018-11-07T11:53:58.785Z,9.4
2018-11-07T11:54:58.801Z,10.1
2018-11-07T11:55:58.828Z,10.4
2018-11-07T11:56:58.775Z,10.6
2018-11-07T11:57:58.775Z,10.6
2018-11-07T11:58:58.888Z,10.2
2018-11-07T11:59:59.045Z,10.5
2018-11-07T12:00:58.841Z,10.5
2018-11-07T12:02:06.839Z,0.8
2018-11-07T12:03:06.818Z,1.2
2018-11-07T12:04:06.860Z,1.6
2018-11-07T12:05:06.839Z,2.3
2018-11-07T12:06:06.869Z,3.1
2018-11-07T12:07:06.828Z,3.4
2018-11-07T12:08:06.803Z,3.8
2018-11-07T12:09:06.800Z,4
2018-11-07T12:10:06.791Z,4.4
2018-11-07T12:11:06.883Z,5.2
2018-11-07T12:12:06.899Z,5.5
2018-11-07T12:13:06.831Z,6.2
2018-11-07T12:14:06.806Z,6.6
2018-11-07T12:15:06.875Z,7.1
2018-11-07T12:16:06.865Z,7
2018-11-07T12:17:06.808Z,7.7
2018-11-07T12:18:06.831Z,7.9
2018-11-07T12:19:06.840Z,8.3
2018-11-07T12:20:06.817Z,8.8
2018-11-07T12:21:06.886Z,9.3
2018-11-07T12:22:06.812Z,9.5
2018-11-07T12:23:06.809Z,9.5
2018-11-07T12:24:06.789Z,9.4
2018-11-07T12:25:06.901Z,9.1
2018-11-07T12:26:06.797Z,8.5
2018-11-07T12:27:06.817Z,8.3
2018-11-07T12:28:06.872Z,8
2018-11-07T12:29:06.818Z,7.5
2018-11-07T12:30:06.791Z,7.3
2018-11-07T12:31:06.820Z,7.2
2018-11-07T12:32:06.828Z,7.5
2018-11-07T12:33:06.896Z,7.6
2018-11-07T12:34:06.825Z,7.9
2018-11-07T12:35:06.809Z,8
2018-11-07T12:36:06.850Z,8.1
2018-11-07T12:37:06.839Z,7.8
2018-11-07T12:38:06.849Z,7.9
2018-11-07T12:39:06.857Z,8.1
2018-11-07T12:40:06.831Z,8.2
2018-11-07T12:41:06.829Z,8.4
2018-11-07T12:42:06.816Z,8.5
2018-11-07T12:43:06.884Z,8.3
2018-11-07T12:44:06.990Z,8.3
2018-11-07T12:45:06.835Z,8.1
2018-11-07T12:46:06.828Z,7.5
2018-11-07T12:47:06.833Z,7
2018-11-07T12:48:06.808Z,6.6
2018-11-07T12:49:06.914Z,6.7
2018-11-07T12:50:06.949Z,6.3
2018-11-07T12:51:06.844Z,6.4
2018-11-07T12:52:06.839Z,6.6
2018-11-07T12:53:06.821Z,6.6
2018-11-07T12:54:06.869Z,6.4
2018-11-07T12:55:06.798Z,6
2018-11-07T12:56:06.903Z,5.8
2018-11-07T12:57:06.877Z,5.3
2018-11-07T12:58:07.077Z,4.9
2018-11-07T12:59:06.805Z,4.4
2018-11-07T13:00:07.899Z,4.1
2018-11-07T13:01:06.793Z,3.7
2018-11-07T13:02:06.824Z,3.8
2018-11-07T13:03:06.927Z,3.9
2018-11-07T13:04:06.943Z,4
2018-11-07T13:05:06.832Z,3.6
2018-11-07T13:06:06.795Z,3.3
2018-11-07T13:07:06.811Z,3.1
2018-11-07T13:08:06.826Z,3.4
2018-11-07T13:09:06.879Z,3.3
2018-11-07T13:10:06.829Z,3
2018-11-07T13:11:06.811Z,2.8
2018-11-07T13:12:06.871Z,2.5
2018-11-07T13:13:06.809Z,2.6
2018-11-07T13:14:06.887Z,2.6
2018-11-07T13:15:06.810Z,2.8
2018-11-07T13:16:06.833Z,2.8
2018-11-07T13:17:06.809Z,2.7
2018-11-07T13:18:06.884Z,2.8
2018-11-07T13:19:06.821Z,2.9
2018-11-07T13:20:06.792Z,2.9
2018-11-07T13:21:06.851Z,2.9
2018-11-07T13:22:06.857Z,2.8
2018-11-07T13:23:06.826Z,2.9
2018-11-07T13:24:06.817Z,3.5
2018-11-07T13:25:06.812Z,3.6
2018-11-07T13:26:06.823Z,3.6
2018-11-07T13:27:06.896Z,3.7
2018-11-07T13:28:06.897Z,3.6
2018-11-07T13:29:06.826Z,3.6
2018-11-07T13:30:06.818Z,3.3
2018-11-07T13:31:06.886Z,3.2
2018-11-07T13:32:06.790Z,3.2
2018-11-07T13:33:06.822Z,3.1
2018-11-07T13:34:06.807Z,3
2018-11-07T13:35:06.838Z,2.8
2018-11-07T13:36:06.822Z,2.9
2018-11-07T13:37:06.926Z,3
2018-11-07T13:38:07.031Z,3.5
2018-11-07T13:39:07.298Z,3.8
2018-11-07T13:40:06.810Z,3.8
2018-11-07T13:41:06.919Z,3.6
2018-11-07T13:42:06.812Z,3.3
2018-11-07T13:43:06.884Z,3
2018-11-07T13:44:06.799Z,2.7
2018-11-07T13:45:06.907Z,3.1
2018-11-07T13:46:06.837Z,3.1
2018-11-07T13:47:06.817Z,3.3
2018-11-07T13:48:06.808Z,3.9